Time;durP1;ratioP1;P1;durP2;ratioP2;P2;SDS_P1;SDS_P2;PMS_P1;PMS_P2;Temp;Humidity;BMP_temperature;BMP_pressure;BME280_temperature;BME280_humidity;BME280_pressure;Samples;Min_cycle;Max_cycle;Signal;HPM_P1;HPM_P2
2023/04/18 00:00:10;;;;;;;12.33;11.33;;;;;;;12.56;100.00;99028.47;5074448;28;20253;-63
2023/04/18 00:02:38;;;;;;;13.73;12.43;;;;;;;12.57;100.00;99027.41;5074286;28;20199;-65
2023/04/18 00:05:06;;;;;;;14.60;13.43;;;;;;;12.62;100.00;99032.91;5074383;28;20199;-64
2023/04/18 00:07:34;;;;;;;15.50;13.53;;;;;;;12.62;100.00;99035.56;5058047;28;20667;-66
2023/04/18 00:10:02;;;;;;;15.13;13.67;;;;;;;12.66;100.00;99033.28;5054600;28;20222;-65
2023/04/18 00:12:29;;;;;;;15.13;13.63;;;;;;;12.67;100.00;99029.59;5053979;28;20669;-64
2023/04/18 00:14:57;;;;;;;16.03;14.43;;;;;;;12.61;100.00;99033.94;5054949;28;20196;-64
2023/04/18 00:17:25;;;;;;;15.40;14.03;;;;;;;12.61;100.00;99036.59;5054483;28;20207;-64
2023/04/18 00:19:52;;;;;;;15.30;14.07;;;;;;;12.63;100.00;99044.38;5054487;28;20245;-65
2023/04/18 00:22:21;;;;;;;16.10;14.50;;;;;;;12.62;100.00;99032.09;5053925;28;20296;-64
2023/04/18 00:24:48;;;;;;;16.80;15.13;;;;;;;12.69;100.00;99032.81;5053869;28;20666;-65
2023/04/18 00:27:16;;;;;;;15.83;14.50;;;;;;;12.65;100.00;99035.13;5053988;28;20284;-64
2023/04/18 00:29:42;;;;;;;16.63;15.03;;;;;;;12.66;100.00;99034.09;5053813;28;20249;-65
2023/04/18 00:32:09;;;;;;;17.90;14.23;;;;;;;12.74;100.00;99046.31;5053922;28;20189;-64
2023/04/18 00:34:36;;;;;;;16.77;15.07;;;;;;;12.80;100.00;99048.91;5054010;28;20249;-65
2023/04/18 00:37:03;;;;;;;18.00;15.03;;;;;;;12.78;100.00;99042.97;5064006;28;20255;-65
2023/04/18 00:39:29;;;;;;;16.03;14.33;;;;;;;12.86;100.00;99042.69;5073845;28;20213;-64
2023/04/18 00:41:56;;;;;;;18.93;14.67;;;;;;;12.91;100.00;99042.84;5073759;28;20200;-64
2023/04/18 00:44:24;;;;;;;18.57;16.67;;;;;;;12.76;100.00;99039.75;5073489;28;20191;-64
2023/04/18 00:46:51;;;;;;;18.20;16.23;;;;;;;12.74;100.00;99044.47;5073730;28;20231;-65
2023/04/18 00:49:17;;;;;;;18.57;16.87;;;;;;;12.64;100.00;99030.84;5073312;28;20241;-65
2023/04/18 00:51:45;;;;;;;18.17;16.57;;;;;;;12.66;100.00;99031.41;5073668;28;20269;-65
2023/04/18 00:54:12;;;;;;;17.93;16.23;;;;;;;12.63;100.00;99031.88;5072897;28;20749;-65
2023/04/18 00:56:39;;;;;;;19.70;17.40;;;;;;;12.61;100.00;99036.59;5073451;28;20196;-65
2023/04/18 00:59:06;;;;;;;20.23;17.77;;;;;;;12.60;100.00;99037.66;5073574;28;20192;-64
2023/04/18 01:01:34;;;;;;;22.10;18.37;;;;;;;12.52;100.00;99037.91;5073421;28;20335;-64
2023/04/18 01:04:01;;;;;;;20.30;17.73;;;;;;;12.42;100.00;99026.13;5073379;28;20255;-65
2023/04/18 01:06:29;;;;;;;20.20;18.20;;;;;;;12.31;100.00;99006.38;5070645;28;20241;-64
2023/04/18 01:08:56;;;;;;;20.47;17.83;;;;;;;12.54;100.00;99025.19;5072953;28;20664;-65
2023/04/18 01:11:23;;;;;;;22.07;19.70;;;;;;;12.65;100.00;99027.13;5073105;28;20618;-64
2023/04/18 01:14:00;;;;;;;21.37;19.20;;;;;;;12.63;100.00;99029.22;5073189;28;20241;-64
2023/04/18 01:16:28;;;;;;;22.13;19.50;;;;;;;12.61;100.00;99023.28;5073199;28;20207;-64
2023/04/18 01:18:56;;;;;;;22.10;19.27;;;;;;;12.65;100.00;99036.97;5072950;28;20283;-64
2023/04/18 01:21:23;;;;;;;20.97;18.83;;;;;;;12.55;100.00;99026.00;5072981;28;20188;-64
2023/04/18 01:23:50;;;;;;;25.37;19.77;;;;;;;12.26;100.00;99032.00;5072631;28;20285;-64
2023/04/18 01:26:18;;;;;;;24.30;19.50;;;;;;;12.13;100.00;99024.94;5072802;28;20223;-64
2023/04/18 01:28:45;;;;;;;28.13;21.50;;;;;;;12.22;100.00;99026.31;5072877;28;20192;-65
2023/04/18 01:31:12;;;;;;;26.53;21.57;;;;;;;12.12;100.00;99020.66;5072653;28;20201;-65
2023/04/18 01:33:38;;;;;;;27.03;21.93;;;;;;;12.17;100.00;99023.47;5072476;28;20198;-65
2023/04/18 01:36:05;;;;;;;29.23;22.70;;;;;;;12.23;100.00;99022.63;5069661;28;20263;-64
2023/04/18 01:38:32;;;;;;;32.77;23.60;;;;;;;12.26;100.00;99022.19;5072710;28;20231;-64
2023/04/18 01:40:59;;;;;;;27.90;21.27;;;;;;;12.15;100.00;99025.56;5072767;28;20279;-65
2023/04/18 01:43:27;;;;;;;31.77;22.53;;;;;;;11.99;100.00;99022.59;5072148;28;20194;-64
2023/04/18 01:45:54;;;;;;;28.23;23.37;;;;;;;12.04;100.00;99028.91;5071533;28;20287;-65
2023/04/18 01:48:21;;;;;;;27.80;21.43;;;;;;;12.07;100.00;99027.66;5071967;28;20191;-64
2023/04/18 01:50:47;;;;;;;28.40;22.23;;;;;;;12.07;100.00;99023.16;5072484;28;20260;-64
2023/04/18 01:53:16;;;;;;;27.93;20.67;;;;;;;12.07;100.00;99025.81;5072354;28;20279;-64
2023/04/18 01:55:43;;;;;;;27.40;20.97;;;;;;;11.96;100.00;99005.22;5072468;28;20195;-64
2023/04/18 01:58:09;;;;;;;31.53;22.20;;;;;;;12.09;100.00;99033.59;5072310;28;20244;-64
2023/04/18 02:00:37;;;;;;;33.37;22.90;;;;;;;12.10;100.00;99027.22;5071985;28;20684;-65
2023/04/18 02:03:04;;;;;;;37.27;22.87;;;;;;;12.17;100.00;99036.78;5072237;28;20256;-64
2023/04/18 02:05:31;;;;;;;29.40;22.60;;;;;;;11.89;100.00;99036.41;5071590;28;20572;-65
2023/04/18 02:07:58;;;;;;;34.30;22.90;;;;;;;11.94;100.00;99039.22;5070422;28;20223;-65
2023/04/18 02:10:24;;;;;;;33.57;21.60;;;;;;;11.88;100.00;99037.41;5072256;28;20230;-64
2023/04/18 02:12:51;;;;;;;33.07;22.47;;;;;;;11.77;100.00;99047.94;5072058;28;20200;-65
2023/04/18 02:15:18;;;;;;;26.80;21.43;;;;;;;11.79;100.00;99041.38;5072248;28;20671;-64
2023/04/18 02:17:47;;;;;;;29.77;22.40;;;;;;;11.83;100.00;99042.56;5072091;28;20210;-64
2023/04/18 02:20:14;;;;;;;30.17;22.80;;;;;;;11.85;100.00;99045.84;5072085;28;20201;-65
2023/04/18 02:22:41;;;;;;;30.37;23.13;;;;;;;11.77;100.00;99046.09;5071647;28;20254;-64
2023/04/18 02:25:08;;;;;;;32.07;24.30;;;;;;;11.76;100.00;99041.78;5072024;28;20260;-64
2023/04/18 02:27:35;;;;;;;34.13;25.00;;;;;;;11.68;100.00;99043.91;5071723;28;20275;-65
2023/04/18 02:30:01;;;;;;;38.37;26.10;;;;;;;11.78;100.00;99038.91;5072000;28;20199;-64
2023/04/18 02:32:28;;;;;;;33.30;24.20;;;;;;;11.75;100.00;99037.50;5071613;28;20279;-64
2023/04/18 02:34:56;;;;;;;30.30;22.37;;;;;;;11.86;100.00;99036.00;5072016;28;20247;-64
2023/04/18 02:37:23;;;;;;;30.37;22.00;;;;;;;11.79;100.00;99046.69;5054749;28;20716;-64
2023/04/18 02:39:51;;;;;;;27.63;22.33;;;;;;;11.85;100.00;99034.38;5052196;28;20193;-64
2023/04/18 02:42:17;;;;;;;28.40;22.03;;;;;;;11.94;100.00;99049.88;5051776;28;20259;-64
2023/04/18 02:44:44;;;;;;;31.30;21.87;;;;;;;11.91;100.00;99039.66;5051667;28;20185;-64
2023/04/18 02:47:11;;;;;;;33.70;21.07;;;;;;;11.92;100.00;99043.94;5051794;28;20285;-64
2023/04/18 02:49:37;;;;;;;25.30;19.43;;;;;;;11.88;100.00;99048.06;5051473;28;20202;-65
2023/04/18 02:52:05;;;;;;;24.87;18.63;;;;;;;11.75;100.00;99050.81;5051676;28;20191;-64
2023/04/18 02:54:32;;;;;;;25.70;16.93;;;;;;;11.78;100.00;99049.56;5051937;28;20563;-64
2023/04/18 02:57:00;;;;;;;22.47;18.20;;;;;;;11.81;100.00;99063.28;5051714;28;20199;-65
2023/04/18 02:59:26;;;;;;;26.43;17.37;;;;;;;11.78;100.00;99055.72;5051538;28;20234;-64
2023/04/18 03:01:53;;;;;;;23.83;16.77;;;;;;;11.76;100.00;99060.41;5070487;28;20239;-63
2023/04/18 03:04:20;;;;;;;23.00;16.03;;;;;;;11.85;100.00;99059.16;5071336;28;20198;-64
2023/04/18 03:06:47;;;;;;;30.93;20.73;;;;;;;11.75;100.00;99048.16;5069838;28;20224;-64
2023/04/18 03:09:15;;;;;;;24.30;16.50;;;;;;;11.50;100.00;99057.06;5071578;28;20226;-64
2023/04/18 03:11:42;;;;;;;21.83;17.53;;;;;;;11.64;100.00;99059.47;5071237;28;20191;-64
2023/04/18 03:14:08;;;;;;;19.07;15.67;;;;;;;11.73;100.00;99068.03;5071548;28;20196;-64
2023/04/18 03:16:35;;;;;;;18.30;15.37;;;;;;;11.75;100.00;99057.97;5070925;28;20666;-67
2023/04/18 03:19:02;;;;;;;24.37;15.87;;;;;;;11.80;100.00;99058.97;5071207;28;20194;-64
2023/04/18 03:21:28;;;;;;;19.13;15.97;;;;;;;11.74;100.00;99054.50;5071207;28;20247;-64
2023/04/18 03:23:55;;;;;;;23.93;17.13;;;;;;;11.65;100.00;99061.13;5071090;28;20285;-64
2023/04/18 03:26:24;;;;;;;21.57;15.60;;;;;;;11.74;100.00;99059.00;5071373;28;20256;-65
2023/04/18 03:28:51;;;;;;;19.53;15.10;;;;;;;11.76;100.00;99062.28;5071111;28;20202;-64
2023/04/18 03:31:17;;;;;;;21.57;15.33;;;;;;;11.88;100.00;99066.69;5071345;28;20614;-65
2023/04/18 03:33:44;;;;;;;16.90;14.13;;;;;;;11.90;100.00;99064.66;5071353;28;20259;-65
2023/04/18 03:36:13;;;;;;;17.70;13.90;;;;;;;11.83;100.00;99055.88;5065604;28;20300;-64
2023/04/18 03:38:41;;;;;;;17.37;14.50;;;;;;;11.81;100.00;99057.94;5051170;28;20591;-65
2023/04/18 03:41:08;;;;;;;20.37;15.13;;;;;;;11.81;100.00;99065.94;5051376;28;20200;-64
2023/04/18 03:43:36;;;;;;;15.60;13.93;;;;;;;11.90;100.00;99067.31;5053896;28;20252;-64
2023/04/18 03:46:03;;;;;;;19.60;14.60;;;;;;;11.96;100.00;99069.09;5054649;28;20324;-64
2023/04/18 03:48:34;;;;;;;20.20;14.57;;;;;;;12.00;100.00;99074.81;5054695;28;20284;-63
2023/04/18 03:51:01;;;;;;;18.63;14.73;;;;;;;11.55;100.00;99071.34;5054925;28;20190;-64
2023/04/18 03:53:27;;;;;;;18.60;14.63;;;;;;;11.70;100.00;99069.28;5054421;28;20191;-63
2023/04/18 03:55:54;;;;;;;23.43;19.10;;;;;;;11.72;100.00;99056.56;5054658;28;20253;-63
2023/04/18 03:58:22;;;;;;;24.97;18.80;;;;;;;11.84;100.00;99078.78;5054592;28;20203;-63
2023/04/18 04:00:50;;;;;;;21.70;19.27;;;;;;;11.88;100.00;99082.66;5064190;28;20198;-64
2023/04/18 04:03:17;;;;;;;23.10;19.07;;;;;;;11.97;100.00;99083.22;5074653;28;20199;-64
2023/04/18 04:05:44;;;;;;;28.10;18.27;;;;;;;11.68;100.00;99070.50;5074019;28;20730;-64
2023/04/18 04:08:11;;;;;;;26.70;18.53;;;;;;;11.85;100.00;99088.44;5074254;28;20312;-64
2023/04/18 04:10:37;;;;;;;22.93;17.43;;;;;;;11.92;100.00;99094.50;5073980;28;20567;-63
2023/04/18 04:13:04;;;;;;;19.10;15.50;;;;;;;11.85;100.00;99087.59;5062511;28;20205;-64
2023/04/18 04:15:31;;;;;;;19.70;16.00;;;;;;;11.78;100.00;99092.97;5054217;28;20195;-64
2023/04/18 04:17:59;;;;;;;22.20;16.17;;;;;;;11.70;100.00;99100.38;5053723;28;20641;-65
2023/04/18 04:20:25;;;;;;;24.27;16.13;;;;;;;11.74;100.00;99090.94;5054040;28;20262;-65
2023/04/18 04:22:52;;;;;;;24.17;16.17;;;;;;;11.83;100.00;99102.94;5053698;28;20195;-65
2023/04/18 04:25:22;;;;;;;22.00;16.33;;;;;;;11.52;100.00;99093.06;5054026;28;20716;-65
2023/04/18 04:27:52;;;;;;;23.03;17.47;;;;;;;11.59;100.00;99104.47;5054130;28;20233;-65
2023/04/18 04:30:19;;;;;;;26.07;16.80;;;;;;;11.61;100.00;99098.97;5053520;28;20707;-64
2023/04/18 04:32:46;;;;;;;23.53;17.73;;;;;;;11.66;100.00;99099.97;5053864;28;20285;-65
2023/04/18 04:35:14;;;;;;;25.43;17.67;;;;;;;11.44;100.00;99079.19;5067604;28;20247;-65
2023/04/18 04:37:42;;;;;;;22.43;17.30;;;;;;;11.67;100.00;99106.13;5073248;28;20273;-64
2023/04/18 04:40:10;;;;;;;30.27;18.13;;;;;;;11.71;100.00;99102.03;5070532;28;20191;-65
2023/04/18 04:42:39;;;;;;;28.63;17.83;;;;;;;11.76;100.00;99105.66;5070636;28;20739;-65
2023/04/18 04:45:08;;;;;;;26.03;18.17;;;;;;;11.77;100.00;99096.66;5072810;28;20201;-65
2023/04/18 04:47:35;;;;;;;25.93;18.93;;;;;;;11.56;100.00;99109.41;5073111;28;20215;-66
2023/04/18 04:50:03;;;;;;;30.07;18.27;;;;;;;11.43;100.00;99110.28;5072993;28;20236;-66
2023/04/18 04:52:32;;;;;;;30.03;19.17;;;;;;;11.28;100.00;99115.06;5070400;28;20296;-65
2023/04/18 04:54:58;;;;;;;29.67;19.33;;;;;;;11.27;100.00;99113.41;5072416;28;20206;-65
2023/04/18 04:57:25;;;;;;;26.90;19.53;;;;;;;11.35;100.00;99117.69;5073103;28;20194;-65
2023/04/18 04:59:52;;;;;;;30.90;18.23;;;;;;;11.45;100.00;99118.88;5072466;28;20193;-65
2023/04/18 05:02:21;;;;;;;27.70;18.47;;;;;;;11.29;100.00;99119.34;5072551;28;20186;-65
2023/04/18 05:04:48;;;;;;;25.47;18.73;;;;;;;11.36;100.00;99125.47;5070817;28;20308;-65
2023/04/18 05:07:15;;;;;;;31.00;18.50;;;;;;;11.52;100.00;99127.66;5072354;28;20276;-65
2023/04/18 05:09:43;;;;;;;30.40;19.07;;;;;;;11.62;100.00;99113.91;5073053;28;20190;-66
2023/04/18 05:12:10;;;;;;;26.57;18.13;;;;;;;11.74;100.00;99129.00;5073208;28;20202;-66
2023/04/18 05:14:36;;;;;;;25.50;19.30;;;;;;;11.88;100.00;99135.88;5072597;28;20193;-65
2023/04/18 05:17:03;;;;;;;24.30;18.47;;;;;;;12.01;100.00;99135.81;5072797;28;20679;-66
2023/04/18 05:19:30;;;;;;;25.97;16.17;;;;;;;12.18;100.00;99130.81;5072747;28;20235;-66
2023/04/18 05:21:57;;;;;;;26.50;18.90;;;;;;;12.35;100.00;99127.41;5072264;28;20225;-66
2023/04/18 05:24:24;;;;;;;26.57;18.37;;;;;;;12.34;100.00;99136.44;5072360;28;20661;-64
2023/04/18 05:26:52;;;;;;;27.43;19.20;;;;;;;12.42;100.00;99138.00;5072761;28;20260;-63
2023/04/18 05:29:19;;;;;;;24.23;18.70;;;;;;;12.21;100.00;99141.81;5072551;28;20198;-63
2023/04/18 05:31:45;;;;;;;27.40;18.93;;;;;;;12.27;100.00;99130.34;5072565;28;20736;-63
2023/04/18 05:34:12;;;;;;;29.17;18.53;;;;;;;12.39;100.00;99133.94;5069359;28;20190;-64
2023/04/18 05:36:39;;;;;;;29.70;20.70;;;;;;;12.37;100.00;99135.97;5072260;28;20274;-64
2023/04/18 05:39:06;;;;;;;34.60;20.23;;;;;;;12.47;100.00;99136.34;5072834;28;20223;-63
2023/04/18 05:41:32;;;;;;;27.67;20.20;;;;;;;12.55;100.00;99137.91;5072833;28;20276;-63
2023/04/18 05:44:01;;;;;;;28.67;18.03;;;;;;;12.57;100.00;99139.31;5072522;28;20267;-63
2023/04/18 05:46:27;;;;;;;25.40;18.13;;;;;;;12.54;100.00;99138.94;5072209;28;20194;-63
2023/04/18 05:48:54;;;;;;;24.73;17.90;;;;;;;12.51;100.00;99136.72;5072059;28;20379;-64
2023/04/18 05:51:21;;;;;;;28.93;19.53;;;;;;;12.37;100.00;99129.84;5072452;28;20202;-64
2023/04/18 05:53:47;;;;;;;28.13;18.07;;;;;;;12.50;100.00;99141.22;5072122;28;20194;-63
2023/04/18 05:56:14;;;;;;;26.73;19.77;;;;;;;12.64;100.00;99137.41;5071991;28;20241;-64
2023/04/18 05:58:41;;;;;;;25.83;18.07;;;;;;;12.73;100.00;99141.44;5072022;28;20207;-63
2023/04/18 06:01:09;;;;;;;27.87;17.70;;;;;;;12.71;100.00;99132.84;5071860;28;20742;-63
2023/04/18 06:03:36;;;;;;;28.10;19.43;;;;;;;12.65;100.00;99136.38;5069596;28;20184;-65
2023/04/18 06:06:02;;;;;;;31.77;19.30;;;;;;;12.82;100.00;99140.13;5069346;28;20631;-66
2023/04/18 06:08:29;;;;;;;26.30;20.07;;;;;;;12.75;100.00;99150.03;5069195;28;20726;-65
2023/04/18 06:10:56;;;;;;;24.93;17.97;;;;;;;12.76;100.00;99146.34;5070638;28;20252;-64
2023/04/18 06:13:22;;;;;;;27.77;20.27;;;;;;;12.73;100.00;99145.94;5051900;28;20669;-64
2023/04/18 06:15:49;;;;;;;30.00;19.97;;;;;;;12.65;100.00;99141.72;5067817;28;20192;-65
2023/04/18 06:18:17;;;;;;;25.90;18.23;;;;;;;12.68;100.00;99146.63;5069018;28;20618;-64
2023/04/18 06:20:44;;;;;;;25.90;19.20;;;;;;;12.83;100.00;99133.75;5069069;28;20206;-66
2023/04/18 06:23:10;;;;;;;23.90;19.53;;;;;;;13.01;100.00;99144.50;5071129;28;20216;-65
2023/04/18 06:25:37;;;;;;;23.83;19.80;;;;;;;13.19;99.85;99147.16;5068356;28;20191;-64
2023/04/18 06:28:04;;;;;;;23.13;18.13;;;;;;;13.23;99.31;99148.38;5071148;28;20211;-64
2023/04/18 06:30:31;;;;;;;24.17;18.93;;;;;;;13.16;98.66;99144.16;5068736;28;20200;-63
2023/04/18 06:32:58;;;;;;;23.50;18.70;;;;;;;13.08;98.95;99149.75;5070153;28;20202;-65
2023/04/18 06:35:26;;;;;;;21.67;18.23;;;;;;;13.19;99.53;99146.38;5071287;28;20249;-65
2023/04/18 06:37:52;;;;;;;21.47;17.50;;;;;;;13.26;98.47;99141.78;5069939;28;20238;-65
2023/04/18 06:40:19;;;;;;;26.33;20.13;;;;;;;13.35;98.15;99135.94;5071633;28;20657;-67
2023/04/18 06:42:46;;;;;;;33.20;24.80;;;;;;;13.47;96.89;99144.00;5070306;28;20195;-66
2023/04/18 06:45:13;;;;;;;45.53;37.00;;;;;;;13.47;96.75;99144.81;5070329;28;20188;-63
2023/04/18 06:47:40;;;;;;;27.83;23.30;;;;;;;13.49;95.80;99141.94;5069430;28;20247;-63
2023/04/18 06:50:08;;;;;;;29.77;22.40;;;;;;;13.61;96.29;99145.47;5070997;28;20278;-63
2023/04/18 06:52:39;;;;;;;21.53;18.33;;;;;;;13.65;95.64;99138.66;5070061;28;20188;-64
2023/04/18 06:55:07;;;;;;;25.20;19.60;;;;;;;13.77;96.19;99129.66;5070046;28;20678;-63
2023/04/18 06:57:34;;;;;;;22.60;16.33;;;;;;;13.74;94.30;99139.97;5070856;28;20195;-64
2023/04/18 07:00:01;;;;;;;21.57;17.87;;;;;;;13.91;95.05;99140.97;5070639;28;20188;-64
2023/04/18 07:02:27;;;;;;;19.90;17.20;;;;;;;13.97;93.92;99150.78;5070629;28;20195;-66
2023/04/18 07:04:54;;;;;;;19.47;16.37;;;;;;;14.00;93.49;99156.47;5069652;28;20188;-64
2023/04/18 07:07:21;;;;;;;18.77;15.10;;;;;;;14.20;94.15;99151.69;5071490;28;20236;-65
2023/04/18 07:09:51;;;;;;;19.00;15.80;;;;;;;14.41;93.81;99153.03;5071264;28;20196;-65
2023/04/18 07:12:18;;;;;;;21.23;15.30;;;;;;;14.61;91.64;99159.72;5070723;28;20184;-65
2023/04/18 07:14:45;;;;;;;18.27;15.33;;;;;;;14.73;91.10;99157.88;5071398;28;20184;-65
2023/04/18 07:17:11;;;;;;;20.27;16.60;;;;;;;14.93;90.17;99153.00;5072572;28;20253;-65
2023/04/18 07:19:38;;;;;;;19.03;15.50;;;;;;;15.22;89.25;99160.09;5075293;28;20227;-65
2023/04/18 07:22:05;;;;;;;21.20;14.97;;;;;;;15.43;86.46;99159.53;5074984;28;20722;-66
2023/04/18 07:24:31;;;;;;;17.53;14.90;;;;;;;15.63;87.09;99157.28;5074703;28;20588;-65
2023/04/18 07:27:00;;;;;;;19.57;15.23;;;;;;;15.98;85.11;99167.06;5074546;28;20200;-64
2023/04/18 07:29:26;;;;;;;16.37;14.20;;;;;;;16.16;82.76;99167.69;5067379;28;20242;-66
2023/04/18 07:31:53;;;;;;;16.90;15.10;;;;;;;16.31;83.76;99156.44;5073503;28;20229;-66
2023/04/18 07:34:21;;;;;;;23.50;15.63;;;;;;;16.48;81.67;99168.88;5074390;28;20188;-64
2023/04/18 07:36:48;;;;;;;18.53;14.70;;;;;;;16.81;82.20;99162.69;5074273;28;20200;-66
2023/04/18 07:39:15;;;;;;;14.37;13.07;;;;;;;17.06;78.95;99160.44;5074562;28;20219;-66
2023/04/18 07:41:41;;;;;;;18.23;14.77;;;;;;;17.35;77.98;99159.25;5074497;28;20253;-66
2023/04/18 07:44:10;;;;;;;17.07;13.23;;;;;;;17.79;77.35;99148.31;5072310;28;20254;-65
2023/04/18 07:46:36;;;;;;;13.20;11.87;;;;;;;18.29;72.67;99159.63;5072154;28;20190;-64
2023/04/18 07:49:03;;;;;;;12.33;11.23;;;;;;;18.44;71.74;99158.97;5071862;28;20346;-65
2023/04/18 07:51:31;;;;;;;10.37;9.33;;;;;;;18.80;67.76;99158.25;5074454;28;20192;-68
2023/04/18 07:53:58;;;;;;;10.67;9.57;;;;;;;19.59;69.80;99151.78;5074611;28;20242;-69
2023/04/18 07:56:25;;;;;;;12.30;10.03;;;;;;;19.87;65.93;99154.06;5074409;28;20289;-68
2023/04/18 07:58:52;;;;;;;13.17;11.37;;;;;;;19.86;67.34;99138.97;5074551;28;20206;-70
2023/04/18 08:01:23;;;;;;;13.17;10.93;;;;;;;20.31;67.58;99139.13;5074490;28;20193;-71
2023/04/18 08:03:49;;;;;;;14.07;12.23;;;;;;;20.71;65.82;99157.25;5074107;28;20186;-67
2023/04/18 08:06:16;;;;;;;18.73;12.43;;;;;;;20.71;62.00;99146.44;5074421;28;20196;-69
2023/04/18 08:08:43;;;;;;;26.60;11.63;;;;;;;20.85;64.79;99153.72;5074341;28;20214;-68
2023/04/18 08:11:10;;;;;;;19.43;11.80;;;;;;;20.95;64.22;99151.06;5071968;28;20257;-69
2023/04/18 08:13:36;;;;;;;11.40;10.20;;;;;;;20.86;64.25;99158.06;5073613;28;20192;-66
2023/04/18 08:16:03;;;;;;;15.43;10.40;;;;;;;20.94;63.78;99165.63;5059204;28;20201;-68
2023/04/18 08:18:31;;;;;;;12.67;10.43;;;;;;;21.08;64.52;99166.72;5059547;28;20618;-70
2023/04/18 08:20:58;;;;;;;14.17;10.70;;;;;;;21.25;61.60;99175.34;5072707;28;20192;-69
2023/04/18 08:23:25;;;;;;;15.13;10.83;;;;;;;20.85;61.10;99172.63;5072036;28;20192;-68
2023/04/18 08:25:51;;;;;;;19.30;10.57;;;;;;;20.83;62.76;99174.81;5074193;28;20216;-69
2023/04/18 08:28:18;;;;;;;20.33;11.60;;;;;;;20.95;63.30;99166.47;5068552;28;20220;-68
2023/04/18 08:30:47;;;;;;;12.50;11.23;;;;;;;20.56;61.20;99174.22;5068424;28;20204;-68
2023/04/18 08:33:14;;;;;;;11.87;10.67;;;;;;;20.04;61.74;99162.75;5073532;28;20220;-68
2023/04/18 08:35:42;;;;;;;17.70;11.27;;;;;;;19.57;64.50;99160.13;5073482;28;20192;-67
2023/04/18 08:38:09;;;;;;;31.03;12.43;;;;;;;19.63;68.88;99152.88;5071612;28;20219;-67
2023/04/18 08:40:37;;;;;;;27.30;12.77;;;;;;;19.65;64.88;99170.41;5061780;28;20189;-67
2023/04/18 08:43:08;;;;;;;14.07;12.53;;;;;;;19.51;66.45;99171.97;5053990;28;20198;-70
2023/04/18 08:45:35;;;;;;;11.60;10.60;;;;;;;19.19;66.50;99183.84;5073049;28;20190;-71
2023/04/18 08:48:02;;;;;;;12.33;11.07;;;;;;;19.20;65.89;99174.69;5071770;28;20201;-71
2023/04/18 08:50:29;;;;;;;15.23;12.30;;;;;;;19.32;65.89;99189.63;5072221;28;20206;-68
2023/04/18 08:52:59;;;;;;;13.17;11.87;;;;;;;19.45;68.80;99177.59;5072991;28;20246;-69
2023/04/18 08:55:26;;;;;;;14.33;10.97;;;;;;;19.63;67.72;99183.34;5072790;28;20571;-68
2023/04/18 08:57:54;;;;;;;18.10;11.53;;;;;;;19.79;67.36;99190.44;5072715;28;20252;-67
2023/04/18 09:00:21;;;;;;;12.63;11.10;;;;;;;19.93;65.50;99201.56;5073475;28;20242;-70
2023/04/18 09:02:48;;;;;;;15.37;9.10;;;;;;;20.03;65.58;99201.59;5072267;28;20195;-71
2023/04/18 09:05:17;;;;;;;14.53;8.23;;;;;;;20.11;65.73;99193.00;5072959;28;20618;-68
2023/04/18 09:07:45;;;;;;;9.83;9.03;;;;;;;20.12;63.37;99208.94;5072937;28;20195;-68
2023/04/18 09:10:14;;;;;;;14.57;10.13;;;;;;;20.14;64.47;99192.50;5072744;28;20224;-68
2023/04/18 09:12:48;;;;;;;11.03;9.57;;;;;;;20.23;62.98;99204.38;5069506;28;20192;-68
2023/04/18 09:15:17;;;;;;;12.83;11.27;;;;;;;20.08;63.92;99188.09;5072504;28;20181;-69
2023/04/18 09:17:49;;;;;;;19.37;12.20;;;;;;;20.03;63.28;99204.28;5072777;28;20679;-68
2023/04/18 09:20:29;;;;;;;13.10;11.90;;;;;;;19.79;66.35;99189.59;5073504;28;20565;-67
2023/04/18 09:22:56;;;;;;;12.57;10.93;;;;;;;19.80;66.67;99175.88;5072996;28;20611;-68
2023/04/18 09:25:33;;;;;;;15.93;11.63;;;;;;;19.84;67.70;99159.97;5072316;28;20703;-69
2023/04/18 09:28:01;;;;;;;16.60;11.53;;;;;;;19.95;67.77;99153.56;5072891;28;20230;-69
2023/04/18 09:30:32;;;;;;;14.57;11.07;;;;;;;20.08;69.24;99161.13;5072654;28;20693;-70
2023/04/18 09:33:00;;;;;;;18.03;12.47;;;;;;;20.22;68.87;99155.00;5072339;28;20196;-71
2023/04/18 09:35:27;;;;;;;13.37;12.00;;;;;;;20.33;69.21;99156.66;5072792;28;20192;-71
2023/04/18 09:37:54;;;;;;;19.83;13.13;;;;;;;20.48;68.95;99155.88;5072578;28;20227;-63
2023/04/18 09:40:22;;;;;;;18.00;15.10;;;;;;;20.20;69.05;99142.88;5071621;28;20745;-63
2023/04/18 09:42:53;;;;;;;18.03;15.17;;;;;;;19.78;70.32;99150.25;5064378;28;20192;-63
2023/04/18 09:45:20;;;;;;;22.50;14.50;;;;;;;19.32;71.04;99130.34;5052757;28;20274;-64
2023/04/18 09:47:47;;;;;;;16.27;14.53;;;;;;;18.96;73.58;99141.97;5052297;28;20201;-64
2023/04/18 09:50:15;;;;;;;15.20;13.57;;;;;;;18.64;74.75;99137.66;5052857;28;20221;-66
2023/04/18 09:52:43;;;;;;;14.07;12.63;;;;;;;18.32;75.70;99124.16;5070380;28;20215;-66
2023/04/18 09:55:13;;;;;;;15.57;13.77;;;;;;;17.81;76.42;99121.19;5054765;28;20195;-67
2023/04/18 09:57:42;;;;;;;19.83;15.17;;;;;;;17.38;79.46;99099.66;5064379;28;20193;-66
2023/04/18 10:00:16;;;;;;;21.27;14.97;;;;;;;16.96;80.46;99098.56;5070473;28;20196;-67
2023/04/18 10:02:51;;;;;;;19.27;15.03;;;;;;;16.59;82.81;99111.69;5069995;28;20277;-66
2023/04/18 10:05:20;;;;;;;16.73;15.00;;;;;;;16.41;84.24;99127.97;5069896;28;20195;-67
2023/04/18 10:07:48;;;;;;;21.20;17.40;;;;;;;16.27;84.82;99145.41;5069619;28;20196;-67
2023/04/18 10:10:15;;;;;;;16.60;14.43;;;;;;;16.21;85.16;99141.00;5070076;28;20273;-67
2023/04/18 10:12:43;;;;;;;19.73;15.73;;;;;;;16.04;84.83;99133.97;5071597;28;20191;-67
2023/04/18 10:15:11;;;;;;;22.63;17.13;;;;;;;15.82;87.23;99142.66;5072327;28;20250;-67
2023/04/18 10:17:43;;;;;;;23.87;16.77;;;;;;;15.74;87.93;99156.44;5071950;28;20188;-67
2023/04/18 10:20:19;;;;;;;22.10;15.33;;;;;;;15.45;87.71;99168.13;5071997;28;20199;-67
2023/04/18 10:22:46;;;;;;;22.30;15.77;;;;;;;15.22;88.54;99168.13;5071847;28;20230;-67
2023/04/18 10:25:13;;;;;;;27.00;15.93;;;;;;;15.18;89.38;99172.31;5071560;28;20716;-67
2023/04/18 10:27:59;;;;;;;18.83;14.77;;;;;;;15.11;90.23;99160.91;5071889;28;20631;-66
2023/04/18 10:30:53;;;;;;;31.57;26.40;;;;;;;15.17;90.52;99157.31;5071527;28;20211;-66
2023/04/18 10:33:25;;;;;;;22.90;19.57;;;;;;;15.24;90.41;99149.97;5071826;28;20203;-66
2023/04/18 10:36:00;;;;;;;19.87;16.80;;;;;;;15.33;90.52;99142.41;5072087;28;20188;-67
2023/04/18 10:38:27;;;;;;;18.00;14.97;;;;;;;15.46;91.03;99142.19;5071939;28;20292;-67
2023/04/18 10:41:14;;;;;;;15.77;14.17;;;;;;;15.56;88.55;99137.84;5071947;28;20187;-67
2023/04/18 10:44:16;;;;;;;16.00;14.30;;;;;;;15.68;88.45;99135.13;5071594;28;20195;-68
2023/04/18 10:47:18;;;;;;;16.53;14.53;;;;;;;15.83;88.66;99154.19;5068296;28;20196;-67
2023/04/18 10:49:54;;;;;;;20.33;16.83;;;;;;;15.88;88.63;99149.75;5071018;28;20215;-66
2023/04/18 10:52:21;;;;;;;18.87;14.73;;;;;;;15.92;88.03;99134.00;5072563;28;20653;-67
2023/04/18 10:54:54;;;;;;;22.87;16.67;;;;;;;16.04;87.53;99136.66;5075115;28;20192;-67
2023/04/18 10:57:21;;;;;;;28.03;21.30;;;;;;;16.01;87.55;99145.16;5075348;28;20720;-66
2023/04/18 10:59:49;;;;;;;20.90;17.10;;;;;;;15.97;87.59;99133.31;5075102;28;20226;-66
2023/04/18 11:02:24;;;;;;;21.00;16.70;;;;;;;16.16;88.36;99153.50;5075170;28;20554;-67
2023/04/18 11:04:51;;;;;;;19.60;16.57;;;;;;;16.22;88.53;99141.81;5075544;28;20191;-68
2023/04/18 11:07:18;;;;;;;20.23;16.63;;;;;;;16.18;88.16;99140.66;5075263;28;20200;-68
2023/04/18 11:09:52;;;;;;;17.97;15.47;;;;;;;16.20;88.52;99127.84;5075326;28;20277;-69
2023/04/18 11:12:19;;;;;;;18.67;15.87;;;;;;;16.30;86.92;99128.03;5075472;28;20188;-69
2023/04/18 11:14:48;;;;;;;20.20;16.10;;;;;;;16.30;87.97;99130.69;5075330;28;20256;-69